createdAt,value
2019-06-27T00:00:08.291Z,18.11
2019-06-27T00:02:42.935Z,18.09
2019-06-27T00:05:20.960Z,18.09
2019-06-27T00:07:55.387Z,18.10
2019-06-27T00:10:27.469Z,18.09
2019-06-27T00:13:00.086Z,18.07
2019-06-27T00:15:29.777Z,18.06
2019-06-27T00:18:12.883Z,18.02
2019-06-27T00:20:42.923Z,18.01
2019-06-27T00:23:44.496Z,17.74
2019-06-27T00:26:15.464Z,17.93
2019-06-27T00:28:50.093Z,17.89
2019-06-27T00:31:22.388Z,17.88
2019-06-27T00:33:57.852Z,17.87
2019-06-27T00:36:33.434Z,17.85
2019-06-27T00:39:07.782Z,17.82
2019-06-27T00:41:44.885Z,17.82
2019-06-27T00:44:15.108Z,17.85
2019-06-27T00:47:06.462Z,17.88
2019-06-27T00:49:37.339Z,17.90
2019-06-27T00:55:09.859Z,17.89
2019-06-27T00:57:44.897Z,17.86
2019-06-27T01:00:16.206Z,17.80
2019-06-27T01:02:48.233Z,17.76
2019-06-27T01:05:18.686Z,17.72
2019-06-27T01:07:51.480Z,17.70
2019-06-27T01:10:23.172Z,17.65
2019-06-27T01:12:53.755Z,17.60
2019-06-27T01:15:28.122Z,17.58
2019-06-27T01:17:59.608Z,17.53
2019-06-27T01:20:30.678Z,17.50
2019-06-27T01:23:03.270Z,17.51
2019-06-27T01:25:33.362Z,17.52
2019-06-27T01:28:07.400Z,17.50
2019-06-27T01:30:46.015Z,17.47
2019-06-27T01:33:16.976Z,17.43
2019-06-27T01:35:47.663Z,17.40
2019-06-27T01:38:18.705Z,17.37
2019-06-27T01:41:02.705Z,17.36
2019-06-27T01:43:40.019Z,17.37
2019-06-27T01:46:17.109Z,17.35
2019-06-27T01:48:48.543Z,17.32
2019-06-27T01:51:19.820Z,17.34
2019-06-27T01:53:55.069Z,17.30
2019-06-27T01:56:26.577Z,17.28
2019-06-27T01:58:59.592Z,17.23
2019-06-27T02:01:30.412Z,17.22
2019-06-27T02:04:02.834Z,17.24
2019-06-27T02:06:40.207Z,17.25
2019-06-27T02:09:17.088Z,17.26
2019-06-27T02:11:52.602Z,17.26
2019-06-27T02:14:23.625Z,17.25
2019-06-27T02:16:55.576Z,17.19
2019-06-27T02:19:28.797Z,17.17
2019-06-27T02:22:00.779Z,17.15
2019-06-27T02:24:33.769Z,17.14
2019-06-27T02:27:06.585Z,17.11
2019-06-27T02:29:40.418Z,17.06
2019-06-27T02:32:12.892Z,17.02
2019-06-27T02:34:44.904Z,17.01
2019-06-27T02:37:21.690Z,16.99
2019-06-27T02:39:54.267Z,16.95
2019-06-27T02:42:25.661Z,16.95
2019-06-27T02:44:56.969Z,16.93
2019-06-27T02:47:27.060Z,16.95
2019-06-27T02:49:59.859Z,16.97
2019-06-27T02:52:30.520Z,17.01
2019-06-27T02:55:11.155Z,17.02
2019-06-27T02:57:42.386Z,17.03
2019-06-27T03:00:12.523Z,17.01
2019-06-27T03:02:45.830Z,17.03
2019-06-27T03:05:20.481Z,17.07
2019-06-27T03:07:54.426Z,17.08
2019-06-27T03:10:33.578Z,17.09
2019-06-27T03:13:04.981Z,17.09
2019-06-27T03:15:37.619Z,17.14
2019-06-27T03:18:09.583Z,17.14
2019-06-27T03:20:51.562Z,17.16
2019-06-27T03:23:23.863Z,17.19
2019-06-27T03:25:59.882Z,17.22
2019-06-27T03:28:51.058Z,17.23
2019-06-27T03:31:07.222Z,17.18
2019-06-27T03:33:38.198Z,17.16
2019-06-27T03:36:07.760Z,17.16
2019-06-27T03:38:41.218Z,17.21
2019-06-27T03:41:12.925Z,17.24
2019-06-27T03:43:45.903Z,17.29
2019-06-27T03:46:24.679Z,17.33
2019-06-27T03:49:03.382Z,17.41
2019-06-27T03:51:34.204Z,17.49
2019-06-27T03:54:07.533Z,17.58
2019-06-27T03:56:40.866Z,17.68
2019-06-27T03:59:13.573Z,17.74
2019-06-27T04:04:39.155Z,17.91
2019-06-27T04:07:15.507Z,17.98
2019-06-27T04:09:59.635Z,18.07
2019-06-27T04:12:36.080Z,18.16
2019-06-27T04:15:07.387Z,18.26
2019-06-27T04:17:39.326Z,18.23
2019-06-27T04:20:10.403Z,18.31
2019-06-27T04:22:43.743Z,18.43
2019-06-27T04:25:20.103Z,18.47
2019-06-27T04:27:51.642Z,18.56
2019-06-27T04:30:23.762Z,18.63
2019-06-27T04:32:53.237Z,18.67
2019-06-27T04:35:29.443Z,18.78
2019-06-27T04:38:01.940Z,18.85
2019-06-27T04:40:35.144Z,18.68
2019-06-27T04:43:08.602Z,18.61
2019-06-27T04:45:41.810Z,18.64
2019-06-27T04:48:14.089Z,18.65
2019-06-27T04:50:44.929Z,18.68
2019-06-27T04:53:15.883Z,18.59
2019-06-27T04:55:52.520Z,18.58
2019-06-27T04:58:29.483Z,18.54
2019-06-27T05:01:00.545Z,18.54
2019-06-27T05:03:31.525Z,18.54
2019-06-27T05:06:02.861Z,18.62
2019-06-27T05:08:39.752Z,18.65
2019-06-27T05:11:16.103Z,18.69
2019-06-27T05:13:48.902Z,18.72
2019-06-27T05:16:22.650Z,18.74
2019-06-27T05:18:55.535Z,18.77
2019-06-27T05:21:28.939Z,18.84
2019-06-27T05:24:04.607Z,18.81
2019-06-27T05:26:35.660Z,18.81
2019-06-27T05:29:08.340Z,18.83
2019-06-27T05:31:40.129Z,18.92
2019-06-27T05:34:14.683Z,18.95
2019-06-27T05:36:44.792Z,18.96
2019-06-27T05:39:16.707Z,18.96
2019-06-27T05:41:50.541Z,18.93
2019-06-27T05:44:21.102Z,19.01
2019-06-27T05:46:51.959Z,19.05
2019-06-27T05:49:22.717Z,19.12
2019-06-27T05:51:53.235Z,19.22
2019-06-27T05:54:24.150Z,19.24
2019-06-27T05:56:55.845Z,19.20
2019-06-27T05:59:29.508Z,19.14
2019-06-27T06:02:04.472Z,19.11
2019-06-27T06:04:36.790Z,19.10
2019-06-27T06:07:06.997Z,19.11
2019-06-27T06:09:42.139Z,19.14
2019-06-27T06:12:16.790Z,19.19
2019-06-27T06:14:46.945Z,18.19
2019-06-27T06:17:23.084Z,19.15
2019-06-27T06:19:55.022Z,19.20
2019-06-27T06:22:24.726Z,19.24
2019-06-27T06:24:58.246Z,19.35
2019-06-27T06:27:29.987Z,19.46
2019-06-27T06:30:04.707Z,19.55
2019-06-27T06:32:36.931Z,19.62
2019-06-27T06:35:13.182Z,19.69
2019-06-27T06:37:43.770Z,19.75
2019-06-27T06:40:20.764Z,19.75
2019-06-27T06:42:59.311Z,19.84
2019-06-27T06:45:28.311Z,20.02
2019-06-27T06:48:03.425Z,20.18
2019-06-27T06:50:33.508Z,20.16
2019-06-27T06:53:07.388Z,20.07
2019-06-27T06:55:38.497Z,20.24
2019-06-27T06:58:11.852Z,20.42
2019-06-27T07:00:41.508Z,20.54
2019-06-27T07:03:12.684Z,20.55
2019-06-27T07:05:47.831Z,20.59
2019-06-27T07:08:24.481Z,20.51
2019-06-27T07:10:54.890Z,20.58
2019-06-27T07:13:28.827Z,20.53
2019-06-27T07:16:04.707Z,20.50
2019-06-27T07:18:34.877Z,20.57
2019-06-27T07:21:06.927Z,20.60
2019-06-27T07:23:39.103Z,20.73
2019-06-27T07:26:13.209Z,20.78
2019-06-27T07:28:45.981Z,20.85
2019-06-27T07:31:18.639Z,20.92
2019-06-27T07:33:52.213Z,20.90
2019-06-27T07:36:22.198Z,21.32
2019-06-27T07:38:54.705Z,22.63
2019-06-27T07:41:24.639Z,22.52
2019-06-27T07:43:55.840Z,23.84
2019-06-27T07:46:26.519Z,24.09
2019-06-27T07:48:57.755Z,24.33
2019-06-27T07:51:27.559Z,22.96
2019-06-27T07:53:57.436Z,22.53
2019-06-27T07:56:30.431Z,22.18
2019-06-27T07:59:03.179Z,22.96
2019-06-27T08:01:36.067Z,22.54
2019-06-27T08:04:06.187Z,22.75
2019-06-27T08:06:36.848Z,22.63
2019-06-27T08:09:11.053Z,22.58
2019-06-27T08:11:40.817Z,22.71
2019-06-27T08:14:22.648Z,22.72
2019-06-27T08:16:53.891Z,22.84
2019-06-27T08:19:27.521Z,22.86
2019-06-27T08:22:02.555Z,22.71
2019-06-27T08:24:51.886Z,22.68
2019-06-27T08:27:28.162Z,22.48
2019-06-27T08:30:02.317Z,22.31
2019-06-27T08:32:35.901Z,22.36
2019-06-27T08:35:11.772Z,22.38
2019-06-27T08:37:55.666Z,22.57
2019-06-27T08:40:29.599Z,22.45
2019-06-27T08:43:01.032Z,22.21
2019-06-27T08:48:37.106Z,21.77
2019-06-27T08:51:11.880Z,21.48
2019-06-27T08:53:44.006Z,21.74
2019-06-27T08:56:14.688Z,22.08
2019-06-27T08:58:46.345Z,21.95
2019-06-27T09:01:30.769Z,22.17
2019-06-27T09:04:07.139Z,22.66
2019-06-27T09:06:38.542Z,22.88
2019-06-27T09:09:14.723Z,22.84
2019-06-27T09:11:46.194Z,23.10
2019-06-27T09:14:17.179Z,23.18
2019-06-27T09:16:48.801Z,21.31
2019-06-27T09:19:29.589Z,23.05
2019-06-27T09:22:12.050Z,23.05
2019-06-27T09:24:52.297Z,23.11
2019-06-27T09:27:25.352Z,23.04
2019-06-27T09:29:58.476Z,23.15
2019-06-27T09:32:32.909Z,23.35
2019-06-27T09:35:03.816Z,23.36
2019-06-27T09:37:37.189Z,23.20
2019-06-27T09:40:14.187Z,23.47
2019-06-27T09:42:46.666Z,23.43
2019-06-27T09:45:17.462Z,23.03
2019-06-27T09:47:47.648Z,23.01
2019-06-27T09:50:21.511Z,22.87
2019-06-27T09:52:53.229Z,22.71
2019-06-27T09:55:24.195Z,22.71
2019-06-27T09:57:53.891Z,22.93
2019-06-27T10:00:25.107Z,22.74
2019-06-27T10:02:57.066Z,22.40
2019-06-27T10:05:27.127Z,22.36
2019-06-27T10:07:56.890Z,22.64
2019-06-27T10:10:26.419Z,22.66
2019-06-27T10:12:56.301Z,22.65
2019-06-27T10:15:26.054Z,22.84
2019-06-27T10:17:55.735Z,22.71
2019-06-27T10:20:25.549Z,22.45
2019-06-27T10:22:55.029Z,22.16
2019-06-27T10:25:24.652Z,22.08
2019-06-27T10:27:54.482Z,22.12
2019-06-27T10:30:24.574Z,22.07
2019-06-27T10:32:59.698Z,22.12
2019-06-27T10:35:25.923Z,22.41
2019-06-27T10:37:55.568Z,22.46
2019-06-27T10:40:25.395Z,22.47
2019-06-27T10:42:55.339Z,22.49
2019-06-27T10:45:25.012Z,22.44
2019-06-27T10:47:54.944Z,22.26
2019-06-27T10:50:24.539Z,22.29
2019-06-27T10:52:54.043Z,22.33
2019-06-27T10:55:23.778Z,22.18
2019-06-27T10:57:53.390Z,22.06
2019-06-27T11:00:24.689Z,22.00
2019-06-27T11:02:54.612Z,22.11
2019-06-27T11:05:24.673Z,22.08
2019-06-27T11:07:54.426Z,22.11
2019-06-27T11:10:24.298Z,22.16
2019-06-27T11:12:53.982Z,22.33
2019-06-27T11:15:23.706Z,22.33
2019-06-27T11:17:53.647Z,22.53
2019-06-27T11:20:23.625Z,22.41
2019-06-27T11:22:53.344Z,22.47
2019-06-27T11:25:23.169Z,22.72
2019-06-27T11:27:52.840Z,22.68
2019-06-27T11:30:22.645Z,22.64
2019-06-27T11:32:52.596Z,22.64
2019-06-27T11:35:22.264Z,22.08
2019-06-27T11:37:52.218Z,22.74
2019-06-27T11:40:22.508Z,22.90
2019-06-27T11:42:52.593Z,23.03
2019-06-27T11:45:22.308Z,23.03
2019-06-27T11:47:52.120Z,22.96
2019-06-27T11:50:21.706Z,23.15
2019-06-27T11:52:51.630Z,23.33
2019-06-27T11:55:21.539Z,23.43
2019-06-27T11:57:51.114Z,23.61
2019-06-27T12:00:21.282Z,23.86
2019-06-27T12:02:51.174Z,23.90
2019-06-27T12:05:20.884Z,23.75
2019-06-27T12:07:50.571Z,23.58
2019-06-27T12:10:20.629Z,23.57
2019-06-27T12:12:50.312Z,23.53
2019-06-27T12:15:20.483Z,23.56
2019-06-27T12:17:50.143Z,23.77
2019-06-27T12:20:20.036Z,23.88
2019-06-27T12:22:50.031Z,23.89
2019-06-27T12:25:19.736Z,23.77
2019-06-27T12:27:49.379Z,23.75
2019-06-27T12:30:19.825Z,23.75
2019-06-27T12:32:52.630Z,23.82
2019-06-27T12:35:20.897Z,23.91
2019-06-27T12:37:50.538Z,24.12
2019-06-27T12:40:20.804Z,24.10
2019-06-27T12:42:50.528Z,23.94
2019-06-27T12:45:20.355Z,24.18
2019-06-27T12:47:50.037Z,24.30
2019-06-27T12:50:20.067Z,24.22
2019-06-27T12:52:49.837Z,24.17
2019-06-27T12:55:19.652Z,24.00
2019-06-27T12:57:49.705Z,24.13
2019-06-27T13:00:19.449Z,24.25
2019-06-27T13:02:49.065Z,24.01
2019-06-27T13:05:20.606Z,24.15
2019-06-27T13:07:50.460Z,24.37
2019-06-27T13:10:21.632Z,24.33
2019-06-27T13:12:51.227Z,24.46
2019-06-27T13:15:22.487Z,24.53
2019-06-27T13:17:52.156Z,24.59
2019-06-27T13:20:22.060Z,24.73
2019-06-27T13:22:51.820Z,24.62
2019-06-27T13:25:21.589Z,24.54
2019-06-27T13:27:51.399Z,24.77
2019-06-27T13:30:23.943Z,24.87
2019-06-27T13:32:53.766Z,24.72
2019-06-27T13:35:24.789Z,24.71
2019-06-27T13:37:54.545Z,24.77
2019-06-27T13:40:24.465Z,24.84
2019-06-27T13:42:55.638Z,24.83
2019-06-27T13:45:26.773Z,24.97
2019-06-27T13:47:56.804Z,23.96
2019-06-27T13:50:26.386Z,24.82
2019-06-27T13:52:56.084Z,24.96
2019-06-27T13:55:26.194Z,24.88
2019-06-27T13:57:57.601Z,24.80
2019-06-27T14:00:43.066Z,24.78
2019-06-27T14:03:12.773Z,24.77
2019-06-27T14:05:42.671Z,24.78
2019-06-27T14:08:12.613Z,24.74
2019-06-27T14:10:42.379Z,24.73
2019-06-27T14:13:11.874Z,24.83
2019-06-27T14:15:41.730Z,24.90
2019-06-27T14:18:11.332Z,24.97
2019-06-27T14:20:40.909Z,25.06
2019-06-27T14:23:10.594Z,25.01
2019-06-27T14:25:40.491Z,24.89
2019-06-27T14:28:10.124Z,24.85
2019-06-27T14:30:39.906Z,24.96
2019-06-27T14:33:10.233Z,25.09
2019-06-27T14:35:40.020Z,25.07
2019-06-27T14:38:11.052Z,24.97
2019-06-27T14:40:40.864Z,25.03
2019-06-27T14:43:10.698Z,24.97
2019-06-27T14:45:40.511Z,25.01
2019-06-27T14:48:10.089Z,24.96
2019-06-27T14:50:40.078Z,24.75
2019-06-27T14:53:09.783Z,24.88
2019-06-27T14:55:39.420Z,24.80
2019-06-27T14:58:08.998Z,24.77
2019-06-27T15:00:38.907Z,24.79
2019-06-27T15:03:08.579Z,24.78
2019-06-27T15:05:38.074Z,24.83
2019-06-27T15:08:07.596Z,24.79
2019-06-27T15:10:37.359Z,24.63
2019-06-27T15:13:06.982Z,24.36
2019-06-27T15:15:36.580Z,24.21
2019-06-27T15:18:06.630Z,24.34
2019-06-27T15:20:36.621Z,24.50
2019-06-27T15:23:06.234Z,24.57
2019-06-27T15:25:35.943Z,24.63
2019-06-27T15:28:05.880Z,24.41
2019-06-27T15:30:35.713Z,24.29
2019-06-27T15:33:05.596Z,24.29
2019-06-27T15:35:50.844Z,24.52
2019-06-27T15:38:07.015Z,24.59
2019-06-27T15:40:36.580Z,24.55
2019-06-27T15:43:06.245Z,24.41
2019-06-27T15:45:36.206Z,24.50
2019-06-27T15:48:05.915Z,24.40
2019-06-27T15:50:35.828Z,24.52
2019-06-27T15:53:06.174Z,24.51
2019-06-27T15:55:35.946Z,24.60
2019-06-27T15:58:06.118Z,24.71
2019-06-27T16:00:39.216Z,23.87
2019-06-27T16:03:07.285Z,24.69
2019-06-27T16:05:37.202Z,24.69
2019-06-27T16:08:06.975Z,24.57
2019-06-27T16:10:36.632Z,24.61
2019-06-27T16:13:06.685Z,24.70
2019-06-27T16:15:36.327Z,24.73
2019-06-27T16:18:05.911Z,24.74
2019-06-27T16:20:36.185Z,24.59
2019-06-27T16:23:05.910Z,24.58
2019-06-27T16:25:35.739Z,24.64
2019-06-27T16:28:05.854Z,24.08
2019-06-27T16:30:35.600Z,23.69
2019-06-27T16:33:05.757Z,23.64
2019-06-27T16:35:35.678Z,23.56
2019-06-27T16:38:05.544Z,23.19
2019-06-27T16:40:35.618Z,22.90
2019-06-27T16:43:05.974Z,22.95
2019-06-27T16:45:35.890Z,23.08
2019-06-27T16:48:05.715Z,23.04
2019-06-27T16:50:35.922Z,23.25
2019-06-27T16:53:05.714Z,23.35
2019-06-27T16:55:35.934Z,22.96
2019-06-27T16:58:05.731Z,22.97
2019-06-27T17:00:35.675Z,23.31
2019-06-27T17:03:05.834Z,23.20
2019-06-27T17:05:35.785Z,23.04
2019-06-27T17:08:06.273Z,22.96
2019-06-27T17:10:36.048Z,23.03
2019-06-27T17:13:05.704Z,23.13
2019-06-27T17:15:35.554Z,23.23
2019-06-27T17:18:06.122Z,22.11
2019-06-27T17:20:35.676Z,23.02
2019-06-27T17:23:05.756Z,23.08
2019-06-27T17:25:35.972Z,23.04
2019-06-27T17:28:05.847Z,22.78
2019-06-27T17:30:35.434Z,22.38
2019-06-27T17:33:05.605Z,22.55
2019-06-27T17:35:38.428Z,22.64
2019-06-27T17:38:08.384Z,22.67
2019-06-27T17:40:38.140Z,22.69
2019-06-27T17:43:07.788Z,22.44
2019-06-27T17:45:37.621Z,22.22
2019-06-27T17:48:07.710Z,22.16
2019-06-27T17:50:37.416Z,22.23
2019-06-27T17:53:07.158Z,22.43
2019-06-27T17:55:36.850Z,22.45
2019-06-27T17:58:06.413Z,22.39
2019-06-27T18:00:36.139Z,22.34
2019-06-27T18:03:06.111Z,22.21
2019-06-27T18:05:35.798Z,22.06
2019-06-27T18:08:09.019Z,21.75
2019-06-27T18:10:38.774Z,21.58
2019-06-27T18:13:08.429Z,21.55
2019-06-27T18:15:38.040Z,21.57
2019-06-27T18:18:07.652Z,21.60
2019-06-27T18:20:37.344Z,21.73
2019-06-27T18:23:07.035Z,21.59
2019-06-27T18:25:36.747Z,21.47
2019-06-27T18:28:06.276Z,21.50
2019-06-27T18:30:36.133Z,21.52
2019-06-27T18:33:06.264Z,20.93
2019-06-27T18:35:35.923Z,21.31
2019-06-27T18:38:05.791Z,21.08
2019-06-27T18:40:38.691Z,21.28
2019-06-27T18:43:08.353Z,21.20
2019-06-27T18:45:38.020Z,21.16
2019-06-27T18:48:07.536Z,21.19
2019-06-27T18:50:37.255Z,21.18
2019-06-27T18:53:06.887Z,21.04
2019-06-27T18:55:36.480Z,20.86
2019-06-27T18:58:06.670Z,20.74
2019-06-27T19:00:36.505Z,20.62
2019-06-27T19:03:06.462Z,20.68
2019-06-27T19:05:36.043Z,20.52
2019-06-27T19:08:05.738Z,20.63
2019-06-27T19:10:35.536Z,20.68
2019-06-27T19:13:05.733Z,20.78
2019-06-27T19:15:35.711Z,20.79
2019-06-27T19:18:07.643Z,20.73
2019-06-27T19:20:47.350Z,20.63
2019-06-27T19:23:54.572Z,20.50
2019-06-27T19:26:24.238Z,20.34
2019-06-27T19:28:53.878Z,20.04
2019-06-27T19:31:23.920Z,20.04
2019-06-27T19:33:53.608Z,20.07
2019-06-27T19:36:23.222Z,20.17
2019-06-27T19:38:54.456Z,20.22
2019-06-27T19:41:24.123Z,20.17
2019-06-27T19:43:53.779Z,19.94
2019-06-27T19:46:24.005Z,20.03
2019-06-27T19:48:53.589Z,19.94
2019-06-27T19:51:23.259Z,19.98
2019-06-27T19:53:53.042Z,19.98
2019-06-27T19:56:22.707Z,20.04
2019-06-27T19:58:52.225Z,20.05
2019-06-27T20:01:22.347Z,20.05
2019-06-27T20:03:51.946Z,19.98
2019-06-27T20:06:21.648Z,19.83
2019-06-27T20:08:51.592Z,19.77
2019-06-27T20:11:21.269Z,19.46
2019-06-27T20:13:50.819Z,19.82
2019-06-27T20:16:20.529Z,19.72
2019-06-27T20:18:50.246Z,19.56
2019-06-27T20:21:20.578Z,19.51
2019-06-27T20:23:50.362Z,19.40
2019-06-27T20:26:19.888Z,19.42
2019-06-27T20:28:52.758Z,19.52
2019-06-27T20:31:22.494Z,19.50
2019-06-27T20:33:52.055Z,19.56
2019-06-27T20:36:22.302Z,19.53
2019-06-27T20:38:52.059Z,19.37
2019-06-27T20:41:21.740Z,19.31
2019-06-27T20:43:53.071Z,19.32
2019-06-27T20:46:22.550Z,19.41
2019-06-27T20:48:53.964Z,19.37
2019-06-27T20:51:23.597Z,19.37
2019-06-27T20:53:53.595Z,19.16
2019-06-27T20:56:23.180Z,19.09
2019-06-27T20:58:53.038Z,19.14
2019-06-27T21:01:23.059Z,19.18
2019-06-27T21:03:56.404Z,18.94
2019-06-27T21:06:26.580Z,18.92
2019-06-27T21:08:56.578Z,18.81
2019-06-27T21:11:26.925Z,18.81
2019-06-27T21:13:56.647Z,18.83
2019-06-27T21:16:27.862Z,18.66
2019-06-27T21:18:57.808Z,18.64
2019-06-27T21:21:27.455Z,18.64
2019-06-27T21:23:57.430Z,18.56
2019-06-27T21:26:27.318Z,18.59
2019-06-27T21:28:56.878Z,18.57
2019-06-27T21:31:26.435Z,18.61
2019-06-27T21:33:56.243Z,18.72
2019-06-27T21:36:25.804Z,18.65
2019-06-27T21:39:07.113Z,18.45
2019-06-27T21:41:28.423Z,18.39
2019-06-27T21:43:58.055Z,18.50
2019-06-27T21:46:27.839Z,18.46
2019-06-27T21:48:58.011Z,18.36
2019-06-27T21:51:27.660Z,18.42
2019-06-27T21:53:57.427Z,18.41
2019-06-27T21:56:27.223Z,18.46
2019-06-27T21:58:56.756Z,18.42
2019-06-27T22:01:29.420Z,18.44
2019-06-27T22:03:59.498Z,18.11
2019-06-27T22:06:29.234Z,18.26
2019-06-27T22:08:59.139Z,18.26
2019-06-27T22:11:28.941Z,18.33
2019-06-27T22:13:58.524Z,18.34
2019-06-27T22:16:29.355Z,18.36
2019-06-27T22:18:59.111Z,18.21
2019-06-27T22:21:28.646Z,18.04
2019-06-27T22:23:58.322Z,18.05
2019-06-27T22:26:27.995Z,17.96
2019-06-27T22:28:57.561Z,16.96
2019-06-27T22:31:27.257Z,18.04
2019-06-27T22:33:57.064Z,18.17
2019-06-27T22:36:26.682Z,18.26
2019-06-27T22:39:14.453Z,18.29
2019-06-27T22:42:02.529Z,18.29
2019-06-27T22:44:49.543Z,18.23
2019-06-27T22:47:36.478Z,18.20
2019-06-27T22:50:22.187Z,18.19
2019-06-27T22:53:07.392Z,18.15
2019-06-27T22:55:37.068Z,18.13
2019-06-27T22:58:06.725Z,18.03
2019-06-27T23:00:36.319Z,17.98
2019-06-27T23:03:06.163Z,17.96
2019-06-27T23:05:36.078Z,17.98
2019-06-27T23:08:05.855Z,17.98
2019-06-27T23:10:35.674Z,18.05
2019-06-27T23:13:08.483Z,18.02
2019-06-27T23:15:38.185Z,17.98
2019-06-27T23:18:07.741Z,17.89
2019-06-27T23:20:47.413Z,17.86
2019-06-27T23:23:34.346Z,17.82
2019-06-27T23:26:08.678Z,17.76
2019-06-27T23:28:44.878Z,17.72
2019-06-27T23:34:10.238Z,17.85
2019-06-27T23:36:43.834Z,17.84
2019-06-27T23:39:16.019Z,17.84
2019-06-27T23:41:54.785Z,17.83
2019-06-27T23:44:52.125Z,17.85
2019-06-27T23:47:32.297Z,17.86
2019-06-27T23:50:05.139Z,17.81
2019-06-27T23:52:38.053Z,17.47
2019-06-27T23:55:29.476Z,17.66
2019-06-27T23:58:22.544Z,17.68
